Arches, Utah
Current Conditions -  °F | °C
As of 5:53 AM on Thursday 18 Dec 2014 (Local Time) from KCNY Reporting Station
Overcast Overcast  
Wind Chill: 28°   Ceiling: 1100
Heat Index: 34°   Visibility: 10mi
Dew Point: 33°   Wind: 7mph
Humidity: 96%   Direction: 320°NW
Pressure: 30.09"   Gusts: NA
Location:  38.6903°N, 109.256°W
Report Text: KCNY 181253Z AUTO 32006KT 10SM OVC011 01/01 A3009 RMK AO2 SLP201 T00110006
Loading
Personal Weather Stations






























Interactive Weather Map New forecast layout! Learn more

10-Day Weather Forecast

Advertisements
Track Severe Weather on mobile